Time;durP1;ratioP1;P1;durP2;ratioP2;P2;SDS_P1;SDS_P2;PMS_P1;PMS_P2;Temp;Humidity;BMP_temperature;BMP_pressure;BME280_temperature;BME280_humidity;BME280_pressure;Samples;Min_cycle;Max_cycle;Signal;HPM_P1;HPM_P2
2020/12/11 00:01:35;;;;;;;68.73;28.40;;;2.00;99.90;;;;;;4867316;29;20184;-93
2020/12/11 00:04:01;;;;;;;68.37;29.17;;;2.00;99.90;;;;;;4867280;29;20241;-93
2020/12/11 00:06:27;;;;;;;62.07;28.00;;;2.00;99.90;;;;;;4867204;29;20194;-93
2020/12/11 00:08:53;;;;;;;62.63;27.93;;;2.00;99.90;;;;;;4867186;29;20188;-90
2020/12/11 00:11:26;;;;;;;67.30;28.57;;;2.00;99.90;;;;;;4878175;29;20195;-92
2020/12/11 00:13:52;;;;;;;62.40;27.83;;;2.00;99.90;;;;;;4902299;29;20172;-93
2020/12/11 00:16:18;;;;;;;73.33;28.63;;;2.00;99.90;;;;;;4902080;29;20188;-93
2020/12/11 00:18:43;;;;;;;65.37;27.67;;;2.00;99.90;;;;;;4885488;29;20194;-92
2020/12/11 00:21:09;;;;;;;60.67;27.10;;;2.00;99.90;;;;;;4902093;29;20626;-92
2020/12/11 00:23:35;;;;;;;72.63;28.53;;;2.00;99.90;;;;;;4902115;29;20201;-93
2020/12/11 00:26:00;;;;;;;63.70;25.97;;;2.00;99.90;;;;;;4884977;29;20216;-93
2020/12/11 00:28:28;;;;;;;61.50;26.83;;;2.00;99.90;;;;;;4885180;29;20202;-92
2020/12/11 00:30:56;;;;;;;65.73;27.80;;;2.00;99.90;;;;;;4902015;29;20194;-94
2020/12/11 00:33:26;;;;;;;71.83;28.97;;;2.10;99.90;;;;;;4901744;29;20227;-94
2020/12/11 00:35:52;;;;;;;69.17;28.20;;;2.10;99.90;;;;;;4885001;29;20286;-94
2020/12/11 00:38:19;;;;;;;69.30;28.27;;;2.10;99.90;;;;;;4885395;29;20207;-93
2020/12/11 00:40:47;;;;;;;69.40;28.80;;;2.10;99.90;;;;;;4877658;29;20196;-93
2020/12/11 00:43:12;;;;;;;66.97;28.47;;;2.00;99.90;;;;;;4866237;29;20189;-92
2020/12/11 00:45:39;;;;;;;65.97;27.47;;;2.00;99.90;;;;;;4882562;29;20216;-93
2020/12/11 00:48:05;;;;;;;71.70;29.93;;;2.10;99.90;;;;;;4866090;29;20184;-92
2020/12/11 00:50:31;;;;;;;69.53;29.23;;;2.10;99.90;;;;;;4866427;29;20188;-92
2020/12/11 00:52:58;;;;;;;69.37;28.47;;;2.00;99.90;;;;;;4866119;29;20186;-93
2020/12/11 00:55:23;;;;;;;69.30;28.27;;;2.00;99.90;;;;;;4866303;29;20311;-92
2020/12/11 00:57:49;;;;;;;68.03;28.50;;;2.00;99.90;;;;;;4866006;29;20612;-91
2020/12/11 01:00:16;;;;;;;61.27;26.80;;;2.00;99.90;;;;;;4866047;29;20193;-93
2020/12/11 01:02:48;;;;;;;70.57;29.00;;;2.10;99.90;;;;;;4866228;29;20630;-92
2020/12/11 01:05:14;;;;;;;70.80;28.53;;;2.10;99.90;;;;;;4865103;29;20229;-94
2020/12/11 01:07:39;;;;;;;64.60;27.90;;;2.10;99.90;;;;;;4866087;29;20190;-92
2020/12/11 01:10:05;;;;;;;78.60;31.90;;;2.10;99.90;;;;;;4867590;29;20188;-93
2020/12/11 01:12:48;;;;;;;67.77;28.00;;;2.10;99.90;;;;;;4884446;29;20282;-92
2020/12/11 01:17:49;;;;;;;70.33;27.83;;;2.10;99.90;;;;;;4934989;23;20591;-95
2020/12/11 01:20:16;;;;;;;77.80;29.93;;;2.10;99.90;;;;;;4884739;29;20279;-94
2020/12/11 01:22:41;;;;;;;70.40;29.53;;;2.10;99.90;;;;;;4885058;29;20183;-90
2020/12/11 01:25:07;;;;;;;67.03;28.27;;;2.10;99.90;;;;;;4884876;29;20215;-90
2020/12/11 01:27:45;;;;;;;68.23;28.80;;;2.10;99.90;;;;;;4886994;29;20190;-90
2020/12/11 01:30:13;;;;;;;70.83;27.97;;;2.10;99.90;;;;;;4885970;29;20203;-90
2020/12/11 01:32:39;;;;;;;76.47;29.77;;;2.10;99.90;;;;;;4884659;29;20576;-90
2020/12/11 01:35:05;;;;;;;75.03;29.47;;;2.10;99.90;;;;;;4885491;29;20194;-89
2020/12/11 01:37:34;;;;;;;68.80;28.20;;;2.10;99.90;;;;;;4901838;29;20184;-90
2020/12/11 01:40:00;;;;;;;72.47;29.73;;;2.10;99.90;;;;;;4884579;29;20192;-90
2020/12/11 01:42:25;;;;;;;73.67;29.93;;;2.10;99.90;;;;;;4886370;29;20231;-91
2020/12/11 01:44:56;;;;;;;79.60;31.00;;;2.10;99.90;;;;;;4884854;29;20223;-90
2020/12/11 01:47:30;;;;;;;72.63;31.10;;;2.10;99.90;;;;;;4871461;29;20615;-90
2020/12/11 01:49:56;;;;;;;77.97;32.00;;;2.10;99.90;;;;;;4884421;29;20194;-90
2020/12/11 01:52:22;;;;;;;85.07;32.33;;;2.10;99.90;;;;;;4884263;29;20183;-90
2020/12/11 01:54:48;;;;;;;75.47;30.80;;;2.10;99.90;;;;;;4883774;29;20540;-91
2020/12/11 01:57:45;;;;;;;78.53;31.60;;;2.10;99.90;;;;;;4883939;29;20184;-91
2020/12/11 02:00:11;;;;;;;81.93;30.83;;;2.10;99.90;;;;;;4883692;29;20186;-91
2020/12/11 02:02:38;;;;;;;78.53;32.17;;;2.10;99.90;;;;;;4883996;29;20180;-91
2020/12/11 02:05:08;;;;;;;73.10;29.73;;;2.10;99.90;;;;;;4890390;29;20204;-91
2020/12/11 02:07:42;;;;;;;86.13;32.60;;;2.10;99.90;;;;;;4892970;29;20189;-92
2020/12/11 02:10:09;;;;;;;76.50;31.47;;;2.10;99.90;;;;;;4908759;29;20213;-96
2020/12/11 02:12:37;;;;;;;92.13;32.97;;;2.10;99.90;;;;;;4891533;29;20163;-96
2020/12/11 02:15:05;;;;;;;85.53;32.87;;;2.10;99.90;;;;;;4893110;29;20180;-95
2020/12/11 02:18:20;;;;;;;89.90;33.30;;;2.10;99.90;;;;;;4871370;29;670676;-94
2020/12/11 02:20:52;;;;;;;85.87;32.83;;;2.10;99.90;;;;;;4890876;29;20194;-93
2020/12/11 02:23:17;;;;;;;85.97;31.93;;;2.10;99.90;;;;;;4892421;29;20246;-96
2020/12/11 02:25:43;;;;;;;79.00;32.57;;;2.00;99.90;;;;;;4891461;29;20249;-96
2020/12/11 02:28:10;;;;;;;89.80;33.07;;;2.10;99.90;;;;;;4890708;29;20183;-96
2020/12/11 02:30:36;;;;;;;88.63;34.43;;;2.10;99.90;;;;;;4890723;29;20230;-96
2020/12/11 02:33:01;;;;;;;87.43;33.50;;;2.00;99.90;;;;;;4891629;29;20227;-91
2020/12/11 02:35:27;;;;;;;84.00;32.73;;;2.10;99.90;;;;;;4890088;29;20236;-96
2020/12/11 02:38:01;;;;;;;84.93;32.43;;;2.10;99.90;;;;;;4894702;29;20190;-96
2020/12/11 02:40:30;;;;;;;88.40;32.27;;;2.10;99.90;;;;;;4895092;29;20179;-94
2020/12/11 02:42:55;;;;;;;87.30;33.57;;;2.10;99.90;;;;;;4894674;29;20187;-93
2020/12/11 02:45:21;;;;;;;90.30;33.63;;;2.10;99.90;;;;;;4895563;29;20210;-91
2020/12/11 02:47:47;;;;;;;85.00;32.43;;;2.10;99.90;;;;;;4896476;29;20195;-92
2020/12/11 02:50:15;;;;;;;92.43;34.27;;;2.10;99.90;;;;;;4895318;29;20179;-92
2020/12/11 02:52:42;;;;;;;91.00;32.83;;;2.10;99.90;;;;;;4894441;29;20195;-91
2020/12/11 02:55:09;;;;;;;87.33;31.20;;;2.10;99.90;;;;;;4896087;29;20194;-91
2020/12/11 02:57:36;;;;;;;81.93;33.20;;;2.10;99.90;;;;;;4895991;29;20198;-92
2020/12/11 03:00:03;;;;;;;77.97;31.33;;;2.10;99.90;;;;;;4895012;29;20194;-94
2020/12/11 03:02:29;;;;;;;83.40;31.77;;;2.10;99.90;;;;;;4893875;29;20255;-96
2020/12/11 03:04:55;;;;;;;78.33;31.33;;;2.10;99.90;;;;;;4910682;29;20294;-94
2020/12/11 03:07:26;;;;;;;80.53;30.63;;;2.20;99.90;;;;;;4895148;29;20322;-91
2020/12/11 03:10:03;;;;;;;76.23;30.67;;;2.20;99.90;;;;;;4895227;29;20207;-91
2020/12/11 03:12:29;;;;;;;75.30;30.60;;;2.20;99.90;;;;;;4895950;29;20250;-96
2020/12/11 03:14:56;;;;;;;75.07;29.43;;;2.20;99.90;;;;;;4894274;29;20190;-96
2020/12/11 03:17:21;;;;;;;71.00;30.37;;;2.20;99.90;;;;;;4891966;29;20239;-90
2020/12/11 03:19:55;;;;;;;72.13;30.17;;;2.20;99.90;;;;;;4896316;29;20188;-93
2020/12/11 03:22:21;;;;;;;71.83;29.30;;;2.20;99.90;;;;;;4897797;29;20186;-92
2020/12/11 03:24:47;;;;;;;71.20;29.37;;;2.20;99.90;;;;;;4895912;29;20230;-92
2020/12/11 03:27:13;;;;;;;65.40;28.40;;;2.20;99.90;;;;;;4895026;29;20183;-96
2020/12/11 03:29:48;;;;;;;73.13;28.33;;;2.20;99.90;;;;;;4915429;29;20217;-95
2020/12/11 03:32:13;;;;;;;63.73;27.57;;;2.30;99.90;;;;;;4897735;29;20189;-96
2020/12/11 03:34:39;;;;;;;65.93;27.67;;;2.20;99.90;;;;;;4898385;29;20179;-95
2020/12/11 03:37:05;;;;;;;70.37;29.97;;;2.20;99.90;;;;;;4897518;29;20273;-92
2020/12/11 03:39:43;;;;;;;73.30;28.70;;;2.20;99.90;;;;;;4899681;29;20196;-91
2020/12/11 03:42:09;;;;;;;72.60;28.90;;;2.20;99.90;;;;;;4897416;29;20179;-90
2020/12/11 03:44:34;;;;;;;70.93;27.53;;;2.20;99.90;;;;;;4897669;29;20299;-91
2020/12/11 03:47:00;;;;;;;62.30;26.70;;;2.20;99.90;;;;;;4896098;29;20285;-94
2020/12/11 03:49:30;;;;;;;68.07;27.77;;;2.30;99.90;;;;;;4896092;29;20251;-95
2020/12/11 03:51:55;;;;;;;62.47;27.40;;;2.20;99.90;;;;;;4898859;29;20184;-95
2020/12/11 03:54:21;;;;;;;62.87;26.13;;;2.20;99.90;;;;;;4897233;29;20178;-95
2020/12/11 03:56:48;;;;;;;63.70;25.67;;;2.20;99.90;;;;;;4895718;29;20186;-91
2020/12/11 03:59:16;;;;;;;68.77;27.53;;;2.30;99.90;;;;;;4898341;29;20252;-95
2020/12/11 04:01:42;;;;;;;67.27;26.93;;;2.20;99.90;;;;;;4897585;29;20178;-91
2020/12/11 04:04:08;;;;;;;65.20;27.00;;;2.20;99.90;;;;;;4894436;29;20230;-92
2020/12/11 04:06:34;;;;;;;70.40;27.07;;;2.20;99.90;;;;;;4896206;29;20191;-92
2020/12/11 04:09:16;;;;;;;70.83;27.40;;;2.20;99.90;;;;;;4895899;29;20227;-96
2020/12/11 04:11:43;;;;;;;68.93;26.17;;;2.30;99.90;;;;;;4895970;29;20188;-92
2020/12/11 04:14:09;;;;;;;65.40;26.87;;;2.30;99.90;;;;;;4894659;29;20196;-96
2020/12/11 04:16:34;;;;;;;65.93;27.10;;;2.30;99.90;;;;;;4895937;29;20233;-96
2020/12/11 04:19:09;;;;;;;63.37;26.13;;;2.30;99.90;;;;;;4896663;29;20183;-92
2020/12/11 04:21:35;;;;;;;64.53;26.90;;;2.30;99.90;;;;;;4912846;29;20151;-96
2020/12/11 04:24:01;;;;;;;66.73;27.17;;;2.30;99.90;;;;;;4894154;29;20645;-96
2020/12/11 04:26:26;;;;;;;66.50;25.50;;;2.30;99.90;;;;;;4891371;29;20188;-92
2020/12/11 04:29:00;;;;;;;65.23;26.03;;;2.30;99.90;;;;;;4909268;29;20259;-92
2020/12/11 04:31:26;;;;;;;69.90;28.23;;;2.30;99.90;;;;;;4892304;29;20191;-92
2020/12/11 04:33:52;;;;;;;66.50;27.00;;;2.30;99.90;;;;;;4877764;29;20614;-93
2020/12/11 04:36:17;;;;;;;64.80;26.20;;;2.30;99.90;;;;;;4894782;29;20179;-90
2020/12/11 04:38:49;;;;;;;70.03;27.47;;;2.30;99.90;;;;;;4889250;29;20180;-91
2020/12/11 04:41:18;;;;;;;77.03;27.20;;;2.30;99.90;;;;;;4889876;29;20180;-91
2020/12/11 04:43:45;;;;;;;67.80;27.07;;;2.30;99.90;;;;;;4893430;29;20208;-91
2020/12/11 04:46:11;;;;;;;64.17;26.23;;;2.30;99.90;;;;;;4894471;29;20294;-90
2020/12/11 04:48:37;;;;;;;66.17;26.27;;;2.30;99.90;;;;;;4894244;29;20189;-91
2020/12/11 04:51:06;;;;;;;64.70;26.00;;;2.30;99.90;;;;;;4894610;29;20208;-91
2020/12/11 04:53:35;;;;;;;74.23;27.63;;;2.30;99.90;;;;;;4892874;29;20558;-91
2020/12/11 04:56:04;;;;;;;63.63;26.73;;;2.30;99.90;;;;;;4893434;29;20183;-92
2020/12/11 04:58:32;;;;;;;67.57;26.30;;;2.30;99.90;;;;;;4893243;29;20223;-91
2020/12/11 05:01:03;;;;;;;66.83;25.67;;;2.30;99.90;;;;;;4894571;29;20178;-94
2020/12/11 05:03:33;;;;;;;71.40;27.43;;;2.20;99.90;;;;;;4894497;29;20183;-93
2020/12/11 05:06:00;;;;;;;66.77;25.93;;;2.20;99.90;;;;;;4894774;29;20218;-92
2020/12/11 05:08:26;;;;;;;64.23;26.43;;;2.30;99.90;;;;;;4895393;29;20271;-93
2020/12/11 05:11:00;;;;;;;65.83;25.57;;;2.30;99.90;;;;;;4895216;29;20185;-92
2020/12/11 05:13:26;;;;;;;66.53;27.00;;;2.20;99.90;;;;;;4892738;29;20171;-96
2020/12/11 05:16:11;;;;;;;73.73;27.27;;;2.30;99.90;;;;;;4893376;29;20213;-93
2020/12/11 05:18:38;;;;;;;63.93;24.83;;;2.20;99.90;;;;;;4894185;29;20230;-91
2020/12/11 05:21:26;;;;;;;67.13;27.07;;;2.20;99.90;;;;;;4897836;29;20203;-93
2020/12/11 05:24:03;;;;;;;65.83;25.33;;;2.20;99.90;;;;;;4894427;29;20179;-91
2020/12/11 05:26:34;;;;;;;75.67;25.57;;;2.20;99.90;;;;;;4892228;29;20267;-94
2020/12/11 05:29:01;;;;;;;67.97;26.43;;;2.20;99.90;;;;;;4909350;29;20176;-95
2020/12/11 05:31:27;;;;;;;74.23;27.37;;;2.20;99.90;;;;;;4891325;29;20171;-93
2020/12/11 05:34:13;;;;;;;73.23;27.13;;;2.20;99.90;;;;;;4890262;29;20186;-96
2020/12/11 05:36:54;;;;;;;64.73;26.37;;;2.20;99.90;;;;;;4908878;29;20183;-96
2020/12/11 05:39:33;;;;;;;70.23;26.90;;;2.20;99.90;;;;;;4893090;29;20179;-95
2020/12/11 05:42:10;;;;;;;71.20;27.40;;;2.20;99.90;;;;;;4893681;29;20179;-96
2020/12/11 05:44:36;;;;;;;68.80;26.97;;;2.20;99.90;;;;;;4911035;29;20191;-96
2020/12/11 05:47:28;;;;;;;72.63;27.40;;;2.10;99.90;;;;;;4892733;29;20212;-92
2020/12/11 05:50:23;;;;;;;65.27;26.90;;;2.20;99.90;;;;;;4911901;29;20253;-96
2020/12/11 05:52:50;;;;;;;65.67;26.63;;;2.20;99.90;;;;;;4890834;29;20196;-92
2020/12/11 05:55:18;;;;;;;72.10;26.57;;;2.10;99.90;;;;;;4909613;29;20242;-93
2020/12/11 05:57:44;;;;;;;68.03;26.80;;;2.10;99.90;;;;;;4892890;29;20610;-96
2020/12/11 06:00:13;;;;;;;69.00;25.87;;;2.10;99.90;;;;;;4888829;29;20222;-96
2020/12/11 06:02:42;;;;;;;72.43;28.07;;;2.10;99.90;;;;;;4890201;29;20179;-96
2020/12/11 06:05:09;;;;;;;71.97;27.13;;;2.10;99.90;;;;;;4889154;29;20218;-93
2020/12/11 06:07:41;;;;;;;78.43;27.23;;;2.10;99.90;;;;;;4890233;29;20227;-94
2020/12/11 06:10:07;;;;;;;71.07;27.20;;;2.10;99.90;;;;;;4888949;29;20186;-93
2020/12/11 06:12:32;;;;;;;68.60;26.90;;;2.10;99.90;;;;;;4904891;29;20235;-96
2020/12/11 06:15:01;;;;;;;82.93;28.60;;;2.10;99.90;;;;;;4887754;29;20186;-92
2020/12/11 06:17:31;;;;;;;64.43;26.77;;;2.20;99.90;;;;;;4889414;29;20277;-92
2020/12/11 06:20:01;;;;;;;75.07;27.33;;;2.10;99.90;;;;;;4886956;29;20186;-92
2020/12/11 06:22:27;;;;;;;77.53;28.60;;;2.10;99.90;;;;;;4889000;29;20191;-91
2020/12/11 06:24:53;;;;;;;74.33;27.90;;;2.10;99.90;;;;;;4887463;29;20218;-92
2020/12/11 06:27:31;;;;;;;75.70;28.00;;;2.10;99.90;;;;;;4887749;29;20194;-92
2020/12/11 06:30:27;;;;;;;79.63;29.17;;;2.10;99.90;;;;;;4886255;29;20246;-92
2020/12/11 06:32:53;;;;;;;74.43;28.43;;;2.10;99.90;;;;;;4903514;29;20623;-91
2020/12/11 06:35:19;;;;;;;73.97;28.23;;;2.10;99.90;;;;;;4886612;29;20185;-91
2020/12/11 06:37:46;;;;;;;81.70;30.00;;;2.10;99.90;;;;;;4891833;29;20189;-96
2020/12/11 06:40:14;;;;;;;72.40;29.67;;;2.10;99.90;;;;;;4893321;29;20273;-95
2020/12/11 06:42:41;;;;;;;89.83;31.97;;;2.10;99.90;;;;;;4907875;29;20233;-92
2020/12/11 06:45:23;;;;;;;80.83;30.17;;;2.10;99.90;;;;;;4887501;29;20302;-92
2020/12/11 06:47:59;;;;;;;80.80;29.23;;;2.10;99.90;;;;;;4887580;29;20183;-92
2020/12/11 06:50:35;;;;;;;76.93;29.00;;;2.10;99.90;;;;;;4888278;29;20639;-91
2020/12/11 06:53:01;;;;;;;78.40;29.20;;;2.10;99.90;;;;;;4904092;29;20602;-92
2020/12/11 06:55:49;;;;;;;86.47;31.20;;;2.10;99.90;;;;;;4887332;29;20190;-91
2020/12/11 06:58:19;;;;;;;91.73;31.77;;;2.10;99.90;;;;;;4886938;29;20326;-91
2020/12/11 07:01:11;;;;;;;81.90;30.73;;;2.10;99.90;;;;;;4886402;29;20193;-91
2020/12/11 07:03:36;;;;;;;91.20;30.63;;;2.10;99.90;;;;;;4886495;29;20187;-91
2020/12/11 07:06:07;;;;;;;84.23;31.07;;;2.10;99.90;;;;;;4907629;29;20215;-93
2020/12/11 07:08:33;;;;;;;96.13;30.60;;;2.10;99.90;;;;;;4889489;29;20236;-92
2020/12/11 07:11:06;;;;;;;78.07;29.73;;;2.10;99.90;;;;;;4892222;29;20194;-92
2020/12/11 07:13:34;;;;;;;93.93;32.23;;;2.00;99.90;;;;;;4891674;29;20175;-93
2020/12/11 07:16:00;;;;;;;98.37;33.00;;;2.00;99.90;;;;;;4891295;29;20677;-91
2020/12/11 07:18:26;;;;;;;101.07;33.13;;;2.00;99.90;;;;;;4890250;29;20234;-92
2020/12/11 07:21:34;;;;;;;91.33;32.37;;;2.00;99.90;;;;;;4891775;29;20326;-92
2020/12/11 07:24:03;;;;;;;88.40;30.73;;;1.90;99.90;;;;;;4890374;29;20193;-92
2020/12/11 07:26:30;;;;;;;88.70;31.77;;;2.00;99.90;;;;;;4890522;29;20401;-94
2020/12/11 07:29:13;;;;;;;92.70;32.27;;;1.90;99.90;;;;;;4906621;29;20183;-91
2020/12/11 07:31:46;;;;;;;78.70;29.43;;;1.90;99.90;;;;;;4893677;29;20183;-91
2020/12/11 07:34:21;;;;;;;88.47;30.83;;;1.90;99.90;;;;;;4890844;29;20239;-91
2020/12/11 07:36:56;;;;;;;87.57;30.70;;;2.00;99.90;;;;;;4890580;29;20217;-93
2020/12/11 07:39:41;;;;;;;79.40;30.47;;;1.90;99.90;;;;;;4907785;29;20175;-93
2020/12/11 07:42:20;;;;;;;93.23;31.10;;;2.00;99.90;;;;;;4890237;29;20175;-93
2020/12/11 07:44:45;;;;;;;82.87;27.97;;;2.00;99.90;;;;;;4873709;29;20211;-93
2020/12/11 07:47:15;;;;;;;85.10;30.80;;;2.10;99.90;;;;;;4889039;29;20234;-93
2020/12/11 07:49:45;;;;;;;90.63;30.47;;;2.10;99.90;;;;;;4889657;29;20191;-92
2020/12/11 07:52:22;;;;;;;90.13;31.60;;;2.10;99.90;;;;;;4888959;29;20397;-93
2020/12/11 07:54:48;;;;;;;87.47;29.93;;;2.20;99.90;;;;;;4870689;29;20190;-93
2020/12/11 07:57:16;;;;;;;100.20;32.33;;;2.20;99.90;;;;;;4884361;29;20212;-96
2020/12/11 07:59:54;;;;;;;103.73;33.10;;;2.20;99.90;;;;;;4908111;29;20178;-96
2020/12/11 08:02:35;;;;;;;81.73;29.13;;;2.30;99.90;;;;;;4870296;29;20184;-93
2020/12/11 08:05:07;;;;;;;87.23;30.63;;;2.30;99.90;;;;;;4871576;29;20324;-93
2020/12/11 08:07:33;;;;;;;82.33;30.20;;;2.20;99.90;;;;;;4868992;29;20639;-93
2020/12/11 08:10:10;;;;;;;79.23;29.13;;;2.30;99.90;;;;;;4886268;29;20188;-93
2020/12/11 08:12:41;;;;;;;76.27;28.57;;;2.30;99.90;;;;;;4869952;29;20607;-93
2020/12/11 08:15:10;;;;;;;82.90;30.80;;;2.40;99.90;;;;;;4879532;29;20181;-95
2020/12/11 08:17:41;;;;;;;85.57;30.63;;;2.40;99.90;;;;;;4888200;29;20250;-91
2020/12/11 08:20:08;;;;;;;83.50;30.10;;;2.40;99.90;;;;;;4886251;29;20183;-93
2020/12/11 08:22:45;;;;;;;72.47;27.50;;;2.40;99.90;;;;;;4882182;29;20191;-93
2020/12/11 08:25:26;;;;;;;68.57;28.07;;;2.40;99.90;;;;;;4872044;29;20913;-93
2020/12/11 08:27:51;;;;;;;80.37;27.30;;;2.50;99.90;;;;;;4872480;29;20607;-92
2020/12/11 08:30:19;;;;;;;71.07;26.83;;;2.40;99.90;;;;;;4877061;29;20180;-93
2020/12/11 08:32:48;;;;;;;65.50;26.60;;;2.40;99.90;;;;;;4877373;29;20193;-93
2020/12/11 08:35:15;;;;;;;71.83;28.07;;;2.50;99.90;;;;;;4870889;29;20607;-93
2020/12/11 08:37:53;;;;;;;72.13;28.00;;;2.40;99.90;;;;;;4886009;29;20593;-96
2020/12/11 08:40:19;;;;;;;67.17;26.43;;;2.50;99.90;;;;;;4875961;29;20196;-96
2020/12/11 08:43:05;;;;;;;68.53;26.73;;;2.50;99.90;;;;;;4892294;29;20264;-96
2020/12/11 08:45:45;;;;;;;67.23;26.40;;;2.50;99.90;;;;;;4889344;29;20245;-96
2020/12/11 08:51:08;;;;;;;63.93;26.43;;;2.50;99.90;;;;;;4887813;29;20187;-95
2020/12/11 08:53:48;;;;;;;61.80;26.13;;;2.60;99.90;;;;;;4872486;29;20179;-95
2020/12/11 08:56:13;;;;;;;62.93;27.20;;;2.60;99.90;;;;;;4892365;29;20175;-96
2020/12/11 08:58:39;;;;;;;56.43;25.23;;;2.60;99.90;;;;;;4894904;29;20207;-94
2020/12/11 09:01:05;;;;;;;68.73;27.07;;;2.60;99.90;;;;;;4892577;29;20530;-96
2020/12/11 09:03:41;;;;;;;60.67;25.63;;;2.60;99.90;;;;;;4893131;29;20218;-94
2020/12/11 09:06:26;;;;;;;59.73;24.83;;;2.60;99.90;;;;;;4911300;29;20286;-95
2020/12/11 09:08:54;;;;;;;57.47;23.23;;;2.60;99.90;;;;;;5017034;23;20253;-96
2020/12/11 09:11:21;;;;;;;57.83;23.70;;;2.60;99.90;;;;;;4908930;29;20171;-96
2020/12/11 09:13:48;;;;;;;54.77;23.73;;;2.60;99.90;;;;;;4905143;29;20242;-96
2020/12/11 09:16:14;;;;;;;57.70;24.60;;;2.60;99.90;;;;;;4908706;29;20183;-96
2020/12/11 09:18:39;;;;;;;57.97;24.53;;;2.60;99.90;;;;;;4905685;29;20185;-93
2020/12/11 09:21:05;;;;;;;49.53;23.53;;;2.60;99.90;;;;;;4903488;29;20191;-93
2020/12/11 09:23:41;;;;;;;57.73;24.30;;;2.60;99.90;;;;;;4903319;29;20245;-92
2020/12/11 09:26:07;;;;;;;48.90;23.27;;;2.60;99.90;;;;;;4902638;29;20537;-93
2020/12/11 09:28:32;;;;;;;60.77;24.40;;;2.70;99.90;;;;;;4903513;29;20189;-95
2020/12/11 09:30:58;;;;;;;53.40;23.80;;;2.70;99.90;;;;;;4902886;29;20191;-93
2020/12/11 09:33:34;;;;;;;50.67;23.30;;;2.70;99.90;;;;;;4903392;29;20296;-93
2020/12/11 09:36:00;;;;;;;46.03;22.93;;;2.70;99.90;;;;;;4903217;29;20273;-93
2020/12/11 09:38:25;;;;;;;52.80;23.67;;;2.80;99.90;;;;;;4903206;29;20221;-93
2020/12/11 09:41:00;;;;;;;55.03;23.50;;;2.80;99.90;;;;;;4893238;29;20192;-94
2020/12/11 09:46:22;;;;;;;48.20;23.07;;;2.90;99.90;;;;;;4903085;29;20203;-93
2020/12/11 09:54:12;;;;;;;50.80;23.27;;;3.00;99.90;;;;;;4920538;29;20187;-95
2020/12/11 09:56:38;;;;;;;54.83;23.43;;;3.00;99.90;;;;;;4904991;29;20206;-96
2020/12/11 09:59:08;;;;;;;49.03;23.20;;;2.90;99.90;;;;;;4901154;29;20187;-96
2020/12/11 10:01:52;;;;;;;51.80;23.77;;;3.00;99.90;;;;;;4887384;29;20201;-95
2020/12/11 10:04:18;;;;;;;57.50;23.90;;;3.00;99.90;;;;;;4886409;29;20270;-95
2020/12/11 10:06:44;;;;;;;47.73;22.37;;;3.00;99.90;;;;;;4886082;29;20185;-96
2020/12/11 10:09:10;;;;;;;50.13;24.03;;;3.00;99.90;;;;;;4902287;29;20230;-96
2020/12/11 10:11:36;;;;;;;52.57;23.57;;;3.10;99.90;;;;;;4886947;29;20192;-95
2020/12/11 10:16:43;;;;;;;52.90;24.00;;;3.10;99.90;;;;;;4895998;29;20182;-96
2020/12/11 10:19:10;;;;;;;45.60;22.77;;;3.20;99.90;;;;;;4905776;29;20622;-96
2020/12/11 10:21:37;;;;;;;52.80;24.93;;;3.20;99.90;;;;;;4907394;29;20193;-95
2020/12/11 10:24:03;;;;;;;52.47;24.23;;;3.20;99.90;;;;;;4906741;29;20234;-96
2020/12/11 10:26:29;;;;;;;47.23;22.53;;;3.20;99.90;;;;;;4904966;29;20214;-96
2020/12/11 10:28:54;;;;;;;50.43;22.10;;;3.20;99.90;;;;;;4904836;29;20244;-96
2020/12/11 10:31:20;;;;;;;51.33;22.20;;;3.20;99.90;;;;;;4904755;29;20257;-95
2020/12/11 10:33:46;;;;;;;52.43;22.07;;;3.30;99.90;;;;;;4905209;29;20184;-96
2020/12/11 10:36:12;;;;;;;48.27;22.73;;;3.30;99.90;;;;;;4922038;29;20201;-96
2020/12/11 10:38:39;;;;;;;51.23;24.10;;;3.30;99.90;;;;;;4910647;29;20182;-96
2020/12/11 10:41:20;;;;;;;47.07;21.23;;;3.30;99.90;;;;;;4895336;29;20566;-95
2020/12/11 10:43:59;;;;;;;44.70;21.37;;;3.30;99.90;;;;;;4935176;29;20176;-93
2020/12/11 10:46:25;;;;;;;42.97;21.63;;;3.30;99.90;;;;;;4910047;29;20220;-95
2020/12/11 10:48:51;;;;;;;48.70;22.13;;;3.30;99.90;;;;;;4912877;29;20242;-95
2020/12/11 10:51:17;;;;;;;43.90;21.70;;;3.30;99.90;;;;;;4896859;29;20211;-95
2020/12/11 10:53:50;;;;;;;48.37;22.33;;;3.30;99.90;;;;;;4911563;29;20175;-95
2020/12/11 10:56:19;;;;;;;42.17;21.67;;;3.30;99.90;;;;;;4899588;29;20170;-95
2020/12/11 10:58:48;;;;;;;48.63;22.20;;;3.30;99.90;;;;;;4899332;29;20186;-94
2020/12/11 11:01:24;;;;;;;48.67;22.27;;;3.30;99.90;;;;;;4910771;29;20257;-96
2020/12/11 11:04:00;;;;;;;45.93;21.87;;;3.30;99.90;;;;;;4884303;29;20193;-94
2020/12/11 11:06:40;;;;;;;47.10;22.40;;;3.40;99.90;;;;;;4900027;29;20217;-96
2020/12/11 11:09:17;;;;;;;47.20;22.00;;;3.30;99.90;;;;;;4917134;29;20576;-95
2020/12/11 11:28:14;;;;;;;45.63;21.03;;;3.40;99.90;;;;;;4932623;29;20218;-96
2020/12/11 11:30:40;;;;;;;40.83;19.73;;;3.30;99.90;;;;;;4908930;29;20182;-96
2020/12/11 11:33:11;;;;;;;44.00;20.47;;;3.40;99.90;;;;;;4912896;29;20519;-96
2020/12/11 11:35:39;;;;;;;44.70;20.53;;;3.40;99.90;;;;;;4998175;23;20166;-93
2020/12/11 11:38:09;;;;;;;40.73;20.10;;;3.40;99.90;;;;;;4945904;23;20376;-95
2020/12/11 11:40:39;;;;;;;42.60;21.60;;;3.30;99.90;;;;;;4926569;28;20263;-94
2020/12/11 11:43:21;;;;;;;40.00;20.33;;;3.40;99.90;;;;;;4904517;29;20190;-94
2020/12/11 11:45:51;;;;;;;38.90;19.80;;;3.30;99.90;;;;;;4929206;23;20206;-95
2020/12/11 11:48:18;;;;;;;36.97;19.47;;;3.30;99.90;;;;;;4923370;29;20282;-96
2020/12/11 11:50:56;;;;;;;43.13;19.83;;;3.30;99.90;;;;;;4931188;23;20249;-95
2020/12/11 11:53:41;;;;;;;44.50;20.10;;;3.30;99.90;;;;;;4940403;29;20163;-94
2020/12/11 11:56:10;;;;;;;38.60;20.07;;;3.40;99.90;;;;;;4922762;29;20293;-95
2020/12/11 11:58:54;;;;;;;38.00;18.80;;;3.40;99.90;;;;;;4928770;23;20301;-96
2020/12/11 12:01:35;;;;;;;37.43;19.57;;;3.40;99.90;;;;;;4887951;29;20191;-95
2020/12/11 12:04:24;;;;;;;34.80;18.83;;;3.40;99.90;;;;;;4919695;29;20171;-94
2020/12/11 12:06:50;;;;;;;37.73;17.83;;;3.40;99.90;;;;;;4903037;29;20622;-96
2020/12/11 12:09:27;;;;;;;39.73;19.70;;;3.40;99.90;;;;;;4928864;23;20246;-95
2020/12/11 12:11:58;;;;;;;35.73;18.87;;;3.40;99.90;;;;;;4938128;29;20686;-93
2020/12/11 12:14:31;;;;;;;38.93;19.73;;;3.40;99.90;;;;;;4940080;28;20485;-94
2020/12/11 12:17:05;;;;;;;35.67;18.43;;;3.40;99.90;;;;;;4923219;29;20179;-93
2020/12/11 12:19:42;;;;;;;36.03;18.17;;;3.40;99.90;;;;;;4923032;29;20641;-94
2020/12/11 12:23:47;;;;;;;37.83;18.47;;;3.40;99.90;;;;;;4938102;29;20199;-94
2020/12/11 12:30:37;;;;;;;37.10;18.93;;;3.40;99.90;;;;;;4939874;28;20234;-94
2020/12/11 12:44:34;;;;;;;34.17;18.43;;;3.50;99.90;;;;;;4891129;29;20163;-95
2020/12/11 12:47:00;;;;;;;36.63;18.30;;;3.60;99.90;;;;;;4886428;29;20196;-96
2020/12/11 12:49:40;;;;;;;39.53;19.17;;;3.60;99.90;;;;;;4885920;29;20205;-93
2020/12/11 12:52:16;;;;;;;36.17;19.07;;;3.60;99.90;;;;;;4953142;23;20297;-92
2020/12/11 12:56:31;;;;;;;37.23;19.40;;;3.60;99.90;;;;;;4955953;23;20233;-96
2020/12/11 12:58:42;;;;;;;34.07;19.13;;;3.70;99.90;;;;;;4937430;29;20226;-93
2020/12/11 13:01:31;;;;;;;33.13;19.07;;;3.70;99.90;;;;;;4924900;29;20191;-96
2020/12/11 13:04:40;;;;;;;36.33;18.93;;;3.60;99.90;;;;;;4931396;29;20186;-95
2020/12/11 13:07:06;;;;;;;35.70;19.00;;;3.60;99.90;;;;;;4930156;29;20206;-94
2020/12/11 13:09:35;;;;;;;37.73;18.87;;;3.70;99.90;;;;;;4931208;29;20188;-95
2020/12/11 13:15:10;;;;;;;36.27;19.17;;;3.60;99.90;;;;;;4932816;29;20220;-96
2020/12/11 13:17:36;;;;;;;37.67;20.03;;;3.70;99.90;;;;;;4931460;29;20187;-95
2020/12/11 13:20:05;;;;;;;34.53;18.87;;;3.60;99.90;;;;;;4931394;29;20178;-95
2020/12/11 13:23:04;;;;;;;36.77;20.20;;;3.60;99.90;;;;;;4930738;29;20189;-95
2020/12/11 13:25:43;;;;;;;34.70;19.77;;;3.60;99.90;;;;;;4930724;29;20241;-96
2020/12/11 13:28:10;;;;;;;38.17;21.43;;;3.60;99.90;;;;;;4927896;29;20179;-95
2020/12/11 13:30:44;;;;;;;40.57;20.63;;;3.60;99.90;;;;;;4929218;29;20259;-94
2020/12/11 13:33:11;;;;;;;34.07;19.33;;;3.60;99.90;;;;;;4929760;29;20203;-96
2020/12/11 13:35:49;;;;;;;34.67;19.27;;;3.60;99.90;;;;;;4937988;29;20281;-96
2020/12/11 13:38:15;;;;;;;35.00;19.77;;;3.60;99.90;;;;;;4939005;29;20179;-96
2020/12/11 13:40:43;;;;;;;42.97;19.97;;;3.60;99.90;;;;;;4938500;29;20191;-96
2020/12/11 13:43:10;;;;;;;35.20;19.67;;;3.60;99.90;;;;;;4947705;23;20234;-96
2020/12/11 13:45:55;;;;;;;31.80;18.27;;;3.60;99.90;;;;;;4918951;29;20254;-96
2020/12/11 13:48:20;;;;;;;30.63;17.53;;;3.60;99.90;;;;;;4919591;29;20174;-96